Time;durP1;ratioP1;P1;durP2;ratioP2;P2;SDS_P1;SDS_P2;PMS_P1;PMS_P2;Temp;Humidity;BMP_temperature;BMP_pressure;BME280_temperature;BME280_humidity;BME280_pressure;Samples;Min_cycle;Max_cycle;Signal;HPM_P1;HPM_P2
2022/01/17 00:00:12;;;;;;;45.22;21.15;;;;;;;3.34;87.99;101055.91;5002381;28;20030;-69
2022/01/17 00:02:39;;;;;;;49.78;22.83;;;;;;;3.33;87.41;101062.00;5001894;28;20162;-69
2022/01/17 00:05:06;;;;;;;40.83;22.65;;;;;;;3.30;86.74;101062.88;5002886;28;20034;-70
2022/01/17 00:07:33;;;;;;;43.22;22.85;;;;;;;3.30;87.11;101061.97;5003243;28;20037;-70
2022/01/17 00:09:58;;;;;;;42.17;19.15;;;;;;;3.26;87.58;101060.25;5003025;28;20044;-69
2022/01/17 00:12:25;;;;;;;46.67;24.58;;;;;;;3.21;87.73;101062.84;5002751;28;20034;-70
2022/01/17 00:14:50;;;;;;;34.40;20.58;;;;;;;3.20;87.83;101068.94;5003414;28;20042;-69
2022/01/17 00:19:44;;;;;;;36.13;18.17;;;;;;;3.28;87.71;101071.56;4995736;28;20134;-69
2022/01/17 00:22:11;;;;;;;34.25;19.90;;;;;;;3.32;87.39;101065.44;5001901;28;20048;-70
2022/01/17 00:24:37;;;;;;;39.22;21.95;;;;;;;3.70;87.31;101069.84;5006533;28;20397;-60
2022/01/17 00:27:03;;;;;;;34.90;21.02;;;;;;;3.90;85.86;101070.69;5006085;28;20100;-60
2022/01/17 00:29:29;;;;;;;26.52;16.30;;;;;;;4.11;84.20;101059.34;5005478;28;20060;-59
2022/01/17 00:31:55;;;;;;;33.80;18.80;;;;;;;4.08;83.70;101061.94;5004515;28;20538;-55
2022/01/17 00:34:21;;;;;;;33.55;18.67;;;;;;;4.05;83.58;101065.44;5004404;28;20042;-69
2022/01/17 00:36:46;;;;;;;31.83;18.75;;;;;;;3.92;83.96;101055.91;5006321;28;20526;-69
2022/01/17 00:39:12;;;;;;;46.00;21.33;;;;;;;3.88;83.60;101061.97;5002795;28;20117;-69
2022/01/17 00:41:37;;;;;;;42.10;21.58;;;;;;;3.69;84.65;101079.38;4986424;28;20077;-69
2022/01/17 00:44:03;;;;;;;34.35;19.52;;;;;;;3.66;85.15;101081.97;5006385;28;20133;-69
2022/01/17 00:46:29;;;;;;;37.08;19.33;;;;;;;3.66;85.34;101081.97;5006165;28;20126;-69
2022/01/17 00:48:54;;;;;;;41.35;19.80;;;;;;;3.61;85.28;101076.75;5006928;28;20471;-69
2022/01/17 00:51:21;;;;;;;34.08;20.30;;;;;;;3.60;85.83;101097.66;4973948;28;20049;-69
2022/01/17 00:53:47;;;;;;;32.85;18.45;;;;;;;3.60;86.11;101092.44;5005991;28;20030;-69
2022/01/17 00:56:13;;;;;;;42.40;19.10;;;;;;;3.64;85.95;101091.53;5006262;28;20034;-69
2022/01/17 00:58:39;;;;;;;36.67;18.98;;;;;;;3.61;85.94;101099.38;5006080;28;20046;-70
2022/01/17 01:01:04;;;;;;;36.58;19.95;;;;;;;3.61;85.96;101097.63;5005645;28;20821;-70
2022/01/17 01:03:30;;;;;;;39.80;20.88;;;;;;;3.64;86.33;101099.38;5005813;28;20049;-70
2022/01/17 01:05:55;;;;;;;31.83;18.27;;;;;;;3.68;86.48;101092.44;5005682;28;20053;-70
2022/01/17 01:08:21;;;;;;;37.08;19.58;;;;;;;3.64;86.60;101096.75;5003574;28;20049;-69
2022/01/17 01:10:46;;;;;;;33.78;19.67;;;;;;;3.63;86.42;101093.28;5005066;28;20042;-71
2022/01/17 01:13:11;;;;;;;35.15;21.05;;;;;;;3.61;86.33;101100.22;5005353;28;20046;-70
2022/01/17 01:18:15;;;;;;;36.75;19.63;;;;;;;3.70;86.97;101088.09;4999820;28;20121;-70
2022/01/17 01:28:39;;;;;;;40.45;20.65;;;;;;;3.85;86.98;101090.69;5003124;28;20068;-70
2022/01/17 01:31:11;;;;;;;39.92;21.70;;;;;;;3.85;87.08;101101.97;5005405;28;20736;-70
2022/01/17 01:33:40;;;;;;;43.00;22.50;;;;;;;3.88;86.69;101103.72;5004654;28;20042;-69
2022/01/17 01:36:12;;;;;;;46.85;25.50;;;;;;;3.85;87.13;101088.94;5004583;28;20478;-71
2022/01/17 01:38:40;;;;;;;45.42;20.10;;;;;;;3.83;86.66;101101.09;5005354;28;20057;-70
2022/01/17 01:41:05;;;;;;;38.28;22.20;;;;;;;3.85;87.03;101101.13;5003911;28;20096;-72
2022/01/17 01:43:30;;;;;;;39.30;22.17;;;;;;;3.90;86.84;101106.34;5005960;28;20045;-70
2022/01/17 01:46:01;;;;;;;39.55;22.70;;;;;;;3.87;86.24;101118.50;5008223;28;20052;-71
2022/01/17 01:48:28;;;;;;;41.55;23.40;;;;;;;3.88;86.45;101122.84;5009174;28;20038;-70
2022/01/17 01:50:54;;;;;;;38.38;23.85;;;;;;;3.88;86.34;101116.75;5008965;28;20423;-71
2022/01/17 01:53:22;;;;;;;39.00;24.23;;;;;;;3.88;86.56;101125.44;5009500;28;20037;-71
2022/01/17 01:55:47;;;;;;;39.20;22.65;;;;;;;3.88;86.43;101121.97;5010161;28;20038;-71
2022/01/17 01:58:15;;;;;;;48.55;27.02;;;;;;;3.88;86.52;101122.84;5009822;28;20040;-71
2022/01/17 02:00:40;;;;;;;40.17;23.83;;;;;;;3.92;86.62;101115.91;4984967;28;20038;-71
2022/01/17 02:03:06;;;;;;;43.45;24.42;;;;;;;3.93;86.40;101094.13;5001515;28;20034;-70
2022/01/17 02:05:31;;;;;;;34.28;21.77;;;;;;;3.96;86.26;101091.53;5007151;28;20605;-71
2022/01/17 02:07:56;;;;;;;42.58;23.92;;;;;;;3.96;86.63;101086.31;5010100;28;20037;-71
2022/01/17 02:10:22;;;;;;;40.20;24.38;;;;;;;4.00;86.33;101090.66;4998378;28;20949;-71
2022/01/17 02:12:47;;;;;;;42.58;25.40;;;;;;;4.02;86.87;101103.72;5003810;28;20044;-71
2022/01/17 02:15:14;;;;;;;42.75;25.42;;;;;;;4.06;86.82;101101.09;5005590;28;20073;-71
2022/01/17 02:17:45;;;;;;;43.95;25.70;;;;;;;4.09;86.50;101106.31;4989915;28;20125;-71
2022/01/17 02:20:22;;;;;;;49.38;29.55;;;;;;;4.11;85.99;101103.72;4989818;28;20043;-70
2022/01/17 02:22:51;;;;;;;44.30;27.10;;;;;;;4.11;86.10;101108.03;4989795;28;20574;-71
2022/01/17 02:25:18;;;;;;;42.65;24.02;;;;;;;4.12;86.23;101109.78;4996383;28;20026;-72
2022/01/17 02:27:44;;;;;;;44.42;23.00;;;;;;;4.14;86.44;101115.88;5009442;28;20038;-71
2022/01/17 02:30:11;;;;;;;40.78;24.77;;;;;;;4.15;86.44;101126.31;5009341;28;20120;-71
2022/01/17 02:32:37;;;;;;;41.85;22.77;;;;;;;4.16;86.32;101138.50;5008561;28;20034;-72
2022/01/17 02:35:14;;;;;;;37.83;23.70;;;;;;;4.18;85.83;101121.06;5009521;28;20092;-70
2022/01/17 02:37:39;;;;;;;38.50;22.73;;;;;;;4.18;85.72;101114.97;5009393;28;20517;-72
2022/01/17 02:40:06;;;;;;;43.35;24.08;;;;;;;4.18;85.82;101100.19;5009603;28;20033;-72
2022/01/17 02:42:33;;;;;;;38.40;22.75;;;;;;;4.19;86.01;101106.31;5006400;28;20030;-71
2022/01/17 02:45:08;;;;;;;36.33;21.85;;;;;;;4.20;86.18;101105.41;5009503;28;20056;-72
2022/01/17 02:47:33;;;;;;;43.28;24.63;;;;;;;4.21;86.19;101109.75;5009186;28;20037;-72
2022/01/17 02:49:59;;;;;;;44.33;24.08;;;;;;;4.22;86.23;101107.16;5009022;28;20094;-72
2022/01/17 02:52:24;;;;;;;35.60;21.77;;;;;;;4.24;85.71;101120.22;5008530;28;20128;-72
2022/01/17 02:54:49;;;;;;;38.72;21.23;;;;;;;4.24;85.98;101121.06;5007618;28;20034;-72
2022/01/17 02:57:15;;;;;;;40.00;23.58;;;;;;;4.24;85.82;101113.25;5009189;28;20399;-71
2022/01/17 02:59:40;;;;;;;37.78;24.67;;;;;;;4.22;85.62;101107.16;5009761;28;20038;-70
2022/01/17 03:02:05;;;;;;;39.80;24.27;;;;;;;4.20;85.48;101115.84;5009134;28;20052;-70
2022/01/17 03:04:32;;;;;;;40.75;20.90;;;;;;;4.20;85.67;101111.50;5008925;28;20702;-70
2022/01/17 03:06:58;;;;;;;41.20;23.30;;;;;;;4.21;85.99;101120.19;5009864;28;20091;-70
2022/01/17 03:09:25;;;;;;;41.55;23.60;;;;;;;4.23;85.92;101123.69;5008689;28;20470;-69
2022/01/17 03:11:50;;;;;;;39.45;25.30;;;;;;;4.22;85.93;101120.19;5008187;28;20064;-70
2022/01/17 03:14:16;;;;;;;47.15;25.88;;;;;;;4.26;86.11;101124.56;5009080;28;20129;-69
2022/01/17 03:16:46;;;;;;;38.60;22.70;;;;;;;4.27;85.51;101122.81;5008617;28;20053;-70
2022/01/17 03:19:12;;;;;;;45.22;23.75;;;;;;;4.25;86.01;101116.72;5008791;28;20392;-69
2022/01/17 03:21:37;;;;;;;39.63;25.38;;;;;;;4.22;85.63;101130.66;5008127;28;20045;-70
2022/01/17 03:24:03;;;;;;;38.53;23.35;;;;;;;4.24;85.67;101125.44;5008911;28;20030;-70
2022/01/17 03:26:30;;;;;;;43.85;25.45;;;;;;;4.23;85.57;101116.75;5008851;28;20049;-70
2022/01/17 03:29:01;;;;;;;41.53;24.50;;;;;;;4.22;85.85;101112.38;5008302;28;20419;-70
2022/01/17 03:31:27;;;;;;;44.08;25.40;;;;;;;4.24;86.01;101115.00;5007772;28;20069;-70
2022/01/17 03:33:52;;;;;;;39.08;24.30;;;;;;;4.25;86.05;101120.19;5007763;28;20034;-69
2022/01/17 03:36:18;;;;;;;40.28;24.38;;;;;;;4.27;85.60;101120.19;5008331;28;20056;-70
2022/01/17 03:38:43;;;;;;;39.90;24.27;;;;;;;4.24;85.76;101109.78;5007708;28;20042;-70
2022/01/17 03:41:12;;;;;;;47.55;26.15;;;;;;;4.24;85.69;101112.38;5007566;28;20046;-70
2022/01/17 03:43:38;;;;;;;42.78;26.10;;;;;;;4.25;85.80;101111.50;5008166;28;20197;-69
2022/01/17 03:46:04;;;;;;;41.25;24.45;;;;;;;4.26;85.83;101101.06;5008721;28;20131;-71
2022/01/17 03:48:31;;;;;;;38.20;24.23;;;;;;;4.26;85.84;101110.66;5007665;28;20045;-70
2022/01/17 03:50:58;;;;;;;48.53;27.13;;;;;;;4.27;85.75;101102.78;5008530;28;20510;-70
2022/01/17 03:53:24;;;;;;;47.55;27.30;;;;;;;4.28;86.15;101099.31;4993136;28;20042;-70
2022/01/17 03:55:51;;;;;;;48.65;25.90;;;;;;;4.27;85.88;101094.09;4992176;28;20041;-70
2022/01/17 03:58:16;;;;;;;40.17;25.25;;;;;;;4.28;86.15;101101.03;4992256;28;20038;-70
2022/01/17 04:00:46;;;;;;;49.05;24.55;;;;;;;4.29;86.01;101110.63;5008058;28;20034;-70
2022/01/17 04:03:13;;;;;;;43.75;25.52;;;;;;;4.28;85.95;101106.25;5012394;28;20034;-71
2022/01/17 04:05:39;;;;;;;45.40;26.90;;;;;;;4.28;86.27;101115.00;5011420;28;20034;-70
2022/01/17 04:08:05;;;;;;;39.58;23.20;;;;;;;4.33;86.22;101121.91;5012225;28;20030;-70
2022/01/17 04:10:31;;;;;;;48.05;27.42;;;;;;;4.29;85.93;101124.53;5011424;28;20396;-70
2022/01/17 04:13:01;;;;;;;42.85;24.90;;;;;;;4.31;86.24;101111.50;5011343;28;20041;-71
2022/01/17 04:15:28;;;;;;;45.65;24.40;;;;;;;4.32;86.27;101114.97;5011848;28;20061;-70
2022/01/17 04:17:53;;;;;;;45.17;27.38;;;;;;;4.27;86.09;101110.63;5011557;28;20546;-71
2022/01/17 04:20:26;;;;;;;52.47;29.38;;;;;;;4.27;86.39;101105.41;5010128;28;20066;-70
2022/01/17 04:22:54;;;;;;;42.03;24.90;;;;;;;4.32;86.13;101121.06;5011836;28;20446;-70
2022/01/17 04:25:21;;;;;;;50.65;27.00;;;;;;;4.35;85.90;101118.44;5011425;28;20503;-70
2022/01/17 04:27:48;;;;;;;46.38;25.80;;;;;;;4.35;86.39;101114.97;5011564;28;20030;-70
2022/01/17 04:30:14;;;;;;;46.78;27.27;;;;;;;4.37;86.24;101123.66;5011634;28;20056;-70
2022/01/17 04:32:41;;;;;;;46.92;27.65;;;;;;;4.38;85.96;101128.00;5010642;28;20022;-70
2022/01/17 04:35:07;;;;;;;49.90;25.75;;;;;;;4.39;85.90;101119.31;5009567;28;20040;-70
2022/01/17 04:37:33;;;;;;;44.47;26.55;;;;;;;4.43;86.04;101137.59;5011744;28;20049;-70
2022/01/17 04:39:58;;;;;;;43.60;25.38;;;;;;;4.45;85.93;101138.41;5011202;28;20038;-70
2022/01/17 04:42:27;;;;;;;46.83;25.55;;;;;;;4.44;85.67;101134.09;5010132;28;20038;-70
2022/01/17 04:45:09;;;;;;;46.67;26.02;;;;;;;4.45;86.27;101145.38;5011245;28;20513;-70
2022/01/17 04:47:36;;;;;;;51.92;29.65;;;;;;;4.47;86.09;101146.25;5011474;28;20034;-70
2022/01/17 04:50:23;;;;;;;46.47;29.63;;;;;;;4.47;85.84;101154.97;5011343;28;20038;-70
2022/01/17 04:52:50;;;;;;;45.50;26.40;;;;;;;4.50;85.72;101154.09;5010512;28;20029;-70
2022/01/17 04:55:18;;;;;;;48.08;28.58;;;;;;;4.52;86.09;101149.72;5011039;28;20026;-70
2022/01/17 04:57:44;;;;;;;58.42;29.73;;;;;;;4.55;85.70;101146.25;5011251;28;20403;-70
2022/01/17 05:00:13;;;;;;;51.20;28.30;;;;;;;4.55;85.38;101147.09;5011165;28;20050;-71
2022/01/17 05:02:39;;;;;;;59.97;30.90;;;;;;;4.55;85.58;101152.31;5009757;28;20096;-70
2022/01/17 05:05:05;;;;;;;51.55;30.73;;;;;;;4.58;85.42;101147.13;5011871;28;20057;-71
2022/01/17 05:07:31;;;;;;;53.88;29.48;;;;;;;4.57;85.66;101145.38;5010950;28;20058;-70
2022/01/17 05:09:57;;;;;;;56.97;31.65;;;;;;;4.60;86.13;101154.94;5010413;28;20038;-70
2022/01/17 05:12:22;;;;;;;53.25;30.02;;;;;;;4.59;85.83;101156.69;5009761;28;20754;-70
2022/01/17 05:14:50;;;;;;;51.53;29.77;;;;;;;4.60;85.78;101160.16;5010807;28;20037;-69
2022/01/17 05:17:36;;;;;;;51.30;28.33;;;;;;;4.60;85.97;101165.38;5008662;28;20196;-70
2022/01/17 05:20:03;;;;;;;49.35;29.38;;;;;;;4.62;85.58;101169.72;5006987;28;20117;-71
2022/01/17 05:22:32;;;;;;;61.88;33.55;;;;;;;4.65;85.31;101167.13;4997117;28;20127;-71
2022/01/17 05:25:00;;;;;;;46.53;27.23;;;;;;;4.64;85.34;101151.44;4990715;28;20065;-72
2022/01/17 05:27:25;;;;;;;51.72;29.38;;;;;;;4.65;85.46;101164.50;4990415;28;20046;-72
2022/01/17 05:29:51;;;;;;;47.78;29.08;;;;;;;4.65;85.47;101158.41;4990814;28;20034;-72
2022/01/17 05:32:16;;;;;;;56.50;30.38;;;;;;;4.64;85.21;101167.13;4989617;28;20109;-72
2022/01/17 05:34:42;;;;;;;51.83;29.02;;;;;;;4.63;85.91;101170.63;4990752;28;20101;-72
2022/01/17 05:37:09;;;;;;;54.30;29.00;;;;;;;4.64;85.74;101167.13;4990439;28;20560;-71
2022/01/17 05:39:35;;;;;;;52.22;31.38;;;;;;;4.67;85.94;101172.31;4990326;28;20559;-71
2022/01/17 05:42:01;;;;;;;53.05;28.67;;;;;;;4.71;85.92;101168.84;4987834;28;20462;-71
2022/01/17 05:44:26;;;;;;;59.15;29.92;;;;;;;4.73;85.43;101175.81;5007546;28;20087;-71
2022/01/17 05:46:52;;;;;;;58.13;32.15;;;;;;;4.73;85.83;101178.41;5006534;28;20054;-70
2022/01/17 05:49:17;;;;;;;54.97;30.20;;;;;;;4.74;85.49;101181.88;5007531;28;20041;-71
2022/01/17 05:51:42;;;;;;;59.35;32.17;;;;;;;4.74;85.60;101195.81;5008458;28;20034;-70
2022/01/17 05:54:08;;;;;;;56.28;31.52;;;;;;;4.74;85.85;101192.34;5009561;28;20091;-71
2022/01/17 05:56:33;;;;;;;51.65;30.52;;;;;;;4.76;86.38;101184.50;5008831;28;20049;-71
2022/01/17 05:58:59;;;;;;;55.20;31.55;;;;;;;4.79;86.07;101189.72;5009403;28;20034;-71
2022/01/17 06:01:25;;;;;;;50.53;29.70;;;;;;;4.78;85.94;101186.25;5009177;28;20034;-71
2022/01/17 06:03:50;;;;;;;56.05;30.55;;;;;;;4.83;85.55;101200.16;5008096;28;20038;-71
2022/01/17 06:06:15;;;;;;;53.28;32.22;;;;;;;4.80;86.01;101200.19;5008989;28;20487;-71
2022/01/17 06:08:42;;;;;;;48.05;29.13;;;;;;;4.80;85.71;101205.41;5009629;28;20038;-71
2022/01/17 06:11:07;;;;;;;57.50;33.67;;;;;;;4.81;85.99;101203.66;5007830;28;20034;-71
2022/01/17 06:13:32;;;;;;;66.38;32.30;;;;;;;4.80;86.36;101194.94;5008290;28;20048;-71
2022/01/17 06:15:58;;;;;;;66.57;36.13;;;;;;;4.82;86.33;101192.31;5008479;28;20103;-70
2022/01/17 06:18:23;;;;;;;60.15;30.33;;;;;;;4.81;86.13;101193.19;5007831;28;20046;-71
2022/01/17 06:20:48;;;;;;;56.13;31.95;;;;;;;4.81;86.36;101198.44;5008530;28;20034;-71
2022/01/17 06:23:14;;;;;;;61.15;31.95;;;;;;;4.81;86.63;101196.69;5009250;28;20045;-71
2022/01/17 06:25:39;;;;;;;62.40;30.95;;;;;;;4.81;86.63;101187.97;5008071;28;20461;-71
2022/01/17 06:28:05;;;;;;;58.10;31.70;;;;;;;4.80;86.20;101189.72;5007749;28;20034;-71
2022/01/17 06:30:30;;;;;;;54.13;31.30;;;;;;;4.79;86.46;101190.56;5008126;28;20428;-71
2022/01/17 06:32:55;;;;;;;57.45;31.70;;;;;;;4.83;86.79;101194.94;5008204;28;20034;-70
2022/01/17 06:35:21;;;;;;;63.15;29.00;;;;;;;4.80;86.69;101200.19;5004724;28;20095;-70
2022/01/17 06:37:48;;;;;;;72.15;35.63;;;;;;;4.82;86.26;101195.78;5004680;28;20076;-71
2022/01/17 06:40:14;;;;;;;62.00;31.13;;;;;;;4.82;86.86;101187.09;5008990;28;20033;-72
2022/01/17 06:42:39;;;;;;;56.80;32.00;;;;;;;4.81;86.71;101187.97;5008233;28;20093;-71
2022/01/17 06:45:06;;;;;;;51.72;29.40;;;;;;;4.80;86.85;101188.81;5004455;28;20060;-72
2022/01/17 06:47:32;;;;;;;57.15;29.85;;;;;;;4.77;86.47;101197.53;5008411;28;20038;-72
2022/01/17 06:49:58;;;;;;;52.25;30.38;;;;;;;4.76;86.57;101208.03;5004239;28;20542;-71
2022/01/17 06:52:24;;;;;;;53.15;28.30;;;;;;;4.77;86.87;101194.94;5008125;28;20045;-72
2022/01/17 06:54:52;;;;;;;55.80;28.95;;;;;;;4.76;86.27;101180.16;5009059;28;20034;-72
2022/01/17 06:57:18;;;;;;;49.22;29.27;;;;;;;4.77;86.31;101179.25;5008444;28;20525;-72
2022/01/17 06:59:43;;;;;;;50.03;25.65;;;;;;;4.76;85.93;101195.81;5004256;28;20034;-72
2022/01/17 07:02:08;;;;;;;57.72;31.70;;;;;;;4.78;85.52;101204.53;5004496;28;20399;-72
2022/01/17 07:04:34;;;;;;;48.97;29.23;;;;;;;4.74;85.69;101203.66;5008038;28;20030;-71
2022/01/17 07:07:00;;;;;;;48.10;28.45;;;;;;;4.70;85.00;101221.94;5008386;28;20545;-72
2022/01/17 07:09:26;;;;;;;45.47;27.15;;;;;;;4.70;84.94;101237.63;5008500;28;20037;-72
2022/01/17 07:11:51;;;;;;;45.88;26.00;;;;;;;4.71;84.86;101247.22;5003376;28;20393;-72
2022/01/17 07:14:16;;;;;;;48.58;25.20;;;;;;;4.76;85.10;101270.72;5005036;28;20038;-71
2022/01/17 07:16:42;;;;;;;46.88;25.55;;;;;;;4.74;84.78;101289.84;5008956;28;20446;-71
2022/01/17 07:19:09;;;;;;;43.28;25.17;;;;;;;4.78;84.85;101274.22;5008213;28;20030;-71
2022/01/17 07:21:35;;;;;;;50.58;25.70;;;;;;;4.78;84.50;101264.63;5007146;28;20380;-72
2022/01/17 07:24:00;;;;;;;50.10;26.50;;;;;;;4.80;84.36;101254.16;5008108;28;20049;-71
2022/01/17 07:26:26;;;;;;;45.47;26.13;;;;;;;4.80;84.53;101251.53;5011209;28;20061;-71
2022/01/17 07:28:51;;;;;;;46.65;28.05;;;;;;;4.79;84.22;101227.16;5012907;28;20041;-71
2022/01/17 07:31:17;;;;;;;49.65;27.77;;;;;;;4.84;84.66;101221.91;5011486;28;20041;-71
2022/01/17 07:33:42;;;;;;;50.40;26.38;;;;;;;4.83;84.29;101218.44;5012729;28;20026;-71
2022/01/17 07:36:08;;;;;;;49.92;29.23;;;;;;;4.85;84.44;101228.88;5010856;28;20025;-71
2022/01/17 07:38:34;;;;;;;48.83;29.65;;;;;;;4.86;84.74;101228.03;5012244;28;20530;-72
2022/01/17 07:41:01;;;;;;;56.92;28.83;;;;;;;4.84;85.10;101222.78;5011229;28;20103;-71
2022/01/17 07:43:26;;;;;;;46.47;26.17;;;;;;;4.88;85.46;101234.97;5014998;28;20038;-71
2022/01/17 07:46:06;;;;;;;49.03;27.75;;;;;;;4.90;85.44;101222.78;5012319;28;20117;-71
2022/01/17 07:51:19;;;;;;;54.72;31.08;;;;;;;4.93;85.52;101214.94;5011521;28;20526;-71
2022/01/17 07:53:44;;;;;;;54.83;32.33;;;;;;;4.95;85.91;101220.16;5008332;28;20049;-71
2022/01/17 07:56:10;;;;;;;55.63;30.83;;;;;;;4.93;85.51;101221.91;5012431;28;20038;-71
2022/01/17 07:58:35;;;;;;;54.05;31.48;;;;;;;4.95;85.68;101220.16;5015950;28;20049;-71
2022/01/17 08:01:01;;;;;;;52.92;29.75;;;;;;;4.94;85.20;101219.28;5012905;28;20046;-70
2022/01/17 08:03:26;;;;;;;54.30;29.35;;;;;;;4.99;85.15;101215.78;5010923;28;20037;-70
2022/01/17 08:05:52;;;;;;;56.55;29.50;;;;;;;4.98;85.11;101214.91;5011761;28;20117;-71
2022/01/17 08:08:17;;;;;;;45.58;25.80;;;;;;;4.95;84.86;101213.19;5012038;28;20509;-71
2022/01/17 08:10:42;;;;;;;53.80;27.38;;;;;;;4.95;84.77;101226.25;5011105;28;20034;-71
2022/01/17 08:13:09;;;;;;;59.30;31.45;;;;;;;4.95;84.92;101231.47;5005255;28;20044;-72
2022/01/17 08:15:36;;;;;;;51.05;27.90;;;;;;;4.95;84.69;101226.25;5004953;28;20026;-72
2022/01/17 08:18:01;;;;;;;58.28;32.83;;;;;;;4.98;84.90;101220.16;5009740;28;20060;-72
2022/01/17 08:20:28;;;;;;;55.58;31.38;;;;;;;4.97;84.91;101214.91;5006092;28;20128;-72
2022/01/17 08:22:54;;;;;;;56.05;29.40;;;;;;;4.94;84.78;101211.44;5000087;28;20050;-71
2022/01/17 08:25:19;;;;;;;56.58;30.67;;;;;;;4.97;85.17;101213.16;4993209;28;20034;-71
2022/01/17 08:27:45;;;;;;;57.83;30.48;;;;;;;4.96;85.25;101208.81;4994587;28;20037;-72
2022/01/17 08:30:11;;;;;;;57.53;28.75;;;;;;;4.95;85.95;101215.78;4992186;28;20427;-71
2022/01/17 08:32:36;;;;;;;60.30;31.98;;;;;;;4.93;85.80;101220.16;4991350;28;20085;-71
2022/01/17 08:35:02;;;;;;;58.05;31.45;;;;;;;4.91;86.20;101234.09;5004216;28;20049;-70
2022/01/17 08:37:30;;;;;;;50.65;29.95;;;;;;;4.94;86.14;101249.75;5006271;28;20135;-70
2022/01/17 08:39:56;;;;;;;63.33;33.60;;;;;;;4.97;86.49;101257.59;5011090;28;20411;-68
2022/01/17 08:42:21;;;;;;;63.05;33.22;;;;;;;5.02;86.24;101266.31;4998822;28;20045;-68
2022/01/17 08:44:50;;;;;;;52.10;28.67;;;;;;;5.01;86.35;101266.31;4992097;28;20491;-68
2022/01/17 08:47:16;;;;;;;55.08;31.70;;;;;;;5.00;86.21;101265.44;4991507;28;20030;-68
2022/01/17 08:49:42;;;;;;;59.67;30.05;;;;;;;5.01;86.28;101267.16;4991732;28;20034;-69
2022/01/17 08:52:07;;;;;;;60.50;29.90;;;;;;;5.04;85.65;101266.28;4991327;28;20034;-71
2022/01/17 08:54:33;;;;;;;61.20;28.98;;;;;;;5.06;85.75;101264.56;4991300;28;20030;-68
2022/01/17 08:56:58;;;;;;;57.25;31.20;;;;;;;5.12;85.68;101268.03;4989930;28;20071;-69
2022/01/17 08:59:23;;;;;;;56.92;28.92;;;;;;;5.14;85.85;101261.06;4991190;28;20070;-68
2022/01/17 09:01:49;;;;;;;56.97;30.67;;;;;;;5.16;85.82;101268.88;4989643;28;20113;-68
2022/01/17 09:04:14;;;;;;;58.28;30.00;;;;;;;5.18;85.49;101277.59;4992014;28;20165;-69
2022/01/17 09:06:40;;;;;;;55.30;27.58;;;;;;;5.18;85.45;101271.50;5006185;28;20081;-68
2022/01/17 09:09:05;;;;;;;70.20;35.35;;;;;;;5.18;85.50;101279.34;5005409;28;20810;-68
2022/01/17 09:11:31;;;;;;;60.45;30.02;;;;;;;5.16;85.60;101272.34;4999555;28;20857;-70
2022/01/17 09:13:56;;;;;;;53.97;32.20;;;;;;;5.18;85.73;101279.34;5003398;28;20070;-71
2022/01/17 09:16:22;;;;;;;59.25;30.77;;;;;;;5.20;85.61;101288.06;5005614;28;20050;-71
2022/01/17 09:18:47;;;;;;;52.20;28.77;;;;;;;5.20;85.94;101286.31;5005784;28;20558;-71
2022/01/17 09:21:13;;;;;;;49.63;31.67;;;;;;;5.24;85.39;101292.38;5005416;28;20621;-71
2022/01/17 09:23:39;;;;;;;56.03;32.10;;;;;;;5.28;85.62;101291.50;4990890;28;20179;-70
2022/01/17 09:26:05;;;;;;;59.42;32.50;;;;;;;5.31;85.50;101292.34;4996108;28;20360;-71
2022/01/17 09:28:31;;;;;;;59.05;31.75;;;;;;;5.32;85.36;101281.03;5010504;28;20049;-71
2022/01/17 09:30:56;;;;;;;60.53;30.13;;;;;;;5.37;85.39;101284.50;5007027;28;20042;-72
2022/01/17 09:33:21;;;;;;;56.05;28.63;;;;;;;5.35;85.09;101286.25;5009195;28;20042;-72
2022/01/17 09:35:47;;;;;;;65.57;32.47;;;;;;;5.38;85.04;101295.81;5008690;28;20026;-72
2022/01/17 09:38:12;;;;;;;55.97;29.23;;;;;;;5.44;85.07;101301.03;5010204;28;20033;-71
2022/01/17 09:40:38;;;;;;;55.72;28.88;;;;;;;5.46;84.30;101299.25;5010059;28;20500;-71
2022/01/17 09:43:04;;;;;;;53.95;30.27;;;;;;;5.49;83.94;101301.91;5009851;28;20073;-71
2022/01/17 09:45:30;;;;;;;54.53;30.70;;;;;;;5.50;84.04;101310.59;5007687;28;20442;-72
2022/01/17 09:47:56;;;;;;;53.40;30.40;;;;;;;5.53;83.81;101315.81;5009349;28;20037;-71
2022/01/17 09:50:32;;;;;;;60.13;31.58;;;;;;;5.55;83.76;101333.25;5008888;28;20410;-72
2022/01/17 09:52:59;;;;;;;51.05;30.80;;;;;;;5.60;83.91;101338.47;5008823;28;20030;-71
2022/01/17 09:55:27;;;;;;;55.15;30.45;;;;;;;5.64;83.50;101342.81;5007441;28;20038;-72
2022/01/17 09:58:02;;;;;;;55.90;30.63;;;;;;;5.66;83.33;101343.69;5009680;28;20046;-71
2022/01/17 10:00:31;;;;;;;55.45;30.52;;;;;;;5.66;83.34;101346.31;5009023;28;20092;-71
2022/01/17 10:02:59;;;;;;;48.13;28.13;;;;;;;5.65;83.25;101338.44;5009322;28;20033;-72
2022/01/17 10:05:26;;;;;;;48.88;29.90;;;;;;;5.71;83.45;101331.44;5009082;28;20049;-71
2022/01/17 10:08:01;;;;;;;53.67;30.25;;;;;;;5.77;83.23;101339.25;5007335;28;20038;-72
2022/01/17 10:10:50;;;;;;;53.67;28.13;;;;;;;5.87;83.06;101319.16;5009065;28;20030;-71
2022/01/17 10:13:21;;;;;;;61.90;33.30;;;;;;;5.88;82.52;101314.78;5009322;28;20034;-71
2022/01/17 10:16:19;;;;;;;51.58;27.30;;;;;;;5.98;82.04;101329.59;5009418;28;20029;-71
2022/01/17 10:18:49;;;;;;;46.90;27.35;;;;;;;6.05;81.94;101326.06;5007044;28;20118;-71
2022/01/17 10:21:29;;;;;;;55.83;30.02;;;;;;;6.07;81.70;101319.06;5005393;28;20033;-71
2022/01/17 10:35:23;;;;;;;51.67;26.77;;;;;;;6.21;80.46;101353.91;5009814;28;20518;-71
2022/01/17 10:38:05;;;;;;;48.60;25.88;;;;;;;6.20;80.08;101360.03;5009839;28;20044;-71
2022/01/17 10:40:33;;;;;;;48.53;28.52;;;;;;;6.18;80.05;101351.31;5010601;28;20115;-71
2022/01/17 10:43:01;;;;;;;53.50;28.08;;;;;;;6.15;80.14;101367.03;5011106;28;20045;-72
2022/01/17 10:45:33;;;;;;;50.40;29.58;;;;;;;6.17;80.17;101356.53;5009679;28;20045;-71
2022/01/17 10:48:01;;;;;;;50.45;28.52;;;;;;;6.20;80.07;101356.50;5009271;28;20100;-71
2022/01/17 10:50:49;;;;;;;52.15;28.05;;;;;;;6.18;80.05;101355.69;5008947;28;20033;-71
2022/01/17 10:53:16;;;;;;;46.15;25.45;;;;;;;6.19;80.09;101363.50;5009268;28;20030;-71
2022/01/17 10:55:51;;;;;;;41.03;25.92;;;;;;;6.18;79.58;101377.50;5008832;28;20030;-71
2022/01/17 10:58:24;;;;;;;40.53;25.38;;;;;;;6.21;79.82;101367.00;5007640;28;20037;-71
2022/01/17 11:01:20;;;;;;;44.83;25.23;;;;;;;6.23;79.02;101378.34;5006692;28;20036;-71
2022/01/17 11:03:48;;;;;;;47.00;26.35;;;;;;;6.24;79.38;101376.56;5004851;28;20033;-71
2022/01/17 11:06:19;;;;;;;45.28;25.77;;;;;;;6.22;79.23;101371.34;5008606;28;20399;-71
2022/01/17 11:08:46;;;;;;;36.05;22.35;;;;;;;6.19;78.47;101368.75;5008465;28;20034;-71
2022/01/17 11:11:11;;;;;;;41.85;26.08;;;;;;;6.19;78.99;101366.13;5006490;28;20042;-71
2022/01/17 11:13:42;;;;;;;41.53;25.80;;;;;;;6.22;78.85;101350.38;5009025;28;20030;-71
2022/01/17 11:16:11;;;;;;;42.47;24.00;;;;;;;6.33;78.74;101337.25;5008738;28;20042;-71
2022/01/17 11:18:37;;;;;;;35.58;22.58;;;;;;;6.52;77.60;101337.09;5008396;28;20042;-72
2022/01/17 11:21:11;;;;;;;41.05;22.83;;;;;;;6.62;77.22;101330.91;5007400;28;20685;-71
2022/01/17 11:23:37;;;;;;;37.88;22.50;;;;;;;6.76;76.89;101328.16;5008615;28;20458;-72
2022/01/17 11:26:05;;;;;;;37.15;24.00;;;;;;;6.78;76.88;101332.50;5006761;28;20037;-71
2022/01/17 11:28:36;;;;;;;38.13;22.83;;;;;;;6.84;76.91;101328.97;5009341;28;20057;-72
2022/01/17 11:31:05;;;;;;;44.90;24.75;;;;;;;6.86;77.07;101332.44;5007933;28;20092;-72
2022/01/17 11:33:30;;;;;;;39.10;22.75;;;;;;;6.83;76.77;101338.59;5008245;28;20127;-72
2022/01/17 11:35:56;;;;;;;42.33;24.40;;;;;;;6.76;76.88;101341.28;5008289;28;20068;-72
2022/01/17 11:38:41;;;;;;;41.30;22.52;;;;;;;6.76;77.05;101350.00;5008208;28;20526;-73
2022/01/17 11:41:21;;;;;;;46.28;24.33;;;;;;;6.77;76.63;101351.75;5005857;28;20034;-73
2022/01/17 11:43:58;;;;;;;35.90;20.67;;;;;;;6.75;76.57;101355.28;5006991;28;20041;-73